Aérodrome :
LOGIN :

S'inscrire | Disclaimer

   EN    FR    IT 

 










Légende :    VFR   VFR Marginal   IFR   IFR Intensif   IFR Très Intensif
Visi : 
Plafond : 
>= 8 km
>= 3000ft
5 à 8 km
1000 à 3000 ft
1500m à 5 km
500 à 1000 ft
800 à 1500m
200 à 500 ft
< 800m
< 200 ft
Symboles :   Orages  Brouillard  Fortes neiges  Fortes précipitations  Vent > 20 kt
SIGMETs :   Divers  Orages  Givrage  Turbulence  Onde Orograph.  Cendres Volcan.






- Altitude de l'aérodrome : 844 ft
- Code IATA : OSR


LKMT - Ostrava-Mosnov

DERNIER METAR :
  • 130900Z 22012KT 9999 SCT024 24/18 Q1012 NOSIG

METARs EXPIRÉS :
  • 130830Z 22012KT 9999 FEW021 24/19 Q1012 NOSIG
  • 130800Z 22012KT 9999 FEW017 23/19 Q1012 NOSIG
  • 130730Z 21012KT 9999 SCT013 23/20 Q1012 NOSIG
  • 130700Z 20010KT 9999 FEW011 22/19 Q1011 NOSIG
  • 130630Z 22008KT 9999 SCT013 BKN020 21/19 Q1011 NOSIG
  • 130600Z 24007KT 9999 OVC010 20/19 Q1011 NOSIG
  • 130530Z 22010KT 9999 OVC009 20/19 Q1011 NOSIG
  • 130500Z 21008KT 9999 FEW009 OVC011 20/18 Q1010 NOSIG
  • 130430Z 22011KT 8000 BKN012 20/19 Q1010 NOSIG

TAF TAF LKMT
Valide du 13 à 06h jusqu'au 14 à 06h UTC


130500Z 1306/1406 23008KT 9999 SCT030
TEMPO 1306/1309 BKN013
PROB30
TEMPO 1306/1309 BKN008
BECMG 1312/1314 04008KT
PROB30
TEMPO 1319/1405 25012G25KT 2000 TSRA BKN007 SCT030CB



MET'MAP, la Météo Aéronautique d'un coup d'oeil ! - Copyright ORBIFLY Décembre 2007 - Disclaimer

ORBIFLY MET'MAP TEAM :

Programmation & Développement : Alexandra Zaïnal
Sur une idée originale de : Baudouin d'Aumeries
Soutien technique & logistique : Manuel Goepfert
Assistance : Marc-Olivier Méhu




SOURCES & CREDITS :

   NOAA